Weather History for Meadville, PA

Change the Weather History Date:

Wednesday, February 5, 2014

  Actual Average Record
Temperature  
Mean Temperature 20 °F -  
Max Temperature 25 °F 32 °F 60 °F (1991)
Min Temperature 15 °F 13 °F -11 °F (1955)
Degree Days  
Heating Degree Days 45    
Moisture  
Dew Point 19 °F    
Average Humidity 83    
Maximum Humidity 91    
Minimum Humidity 74    
Precipitation  
Precipitation 0.42 in - - ()
Sea Level Pressure  
Sea Level Pressure 29.84 in    
Wind  
Wind Speed 9 mph (NNE)    
Max Wind Speed 17 mph    
Max Gust Speed 28 mph    
Visibility 3 miles    
Events Fog , Rain , Snow    
Averages and records for this station are not official NWS values.
T = Trace of Precipitation, MM = Missing Value Source: NWS Daily Summary

Daily Weather History Graph

Daily Weather History Graph

Search for Another Location

Airport:

Trip Planner

Search our weather history database for the weather conditions in past years. The results will help you decide how hot, cold, wet, or windy it might be!

Date:

Astronomy

Feb. 05, 2014 Rise Set
Actual Time 7:28 AM EST 5:41 PM EST
Civil Twilight 6:59 AM EST 6:10 PM EST
Nautical Twilight 6:26 AM EST 6:43 PM EST
Astronomical Twilight 5:54 AM EST 7:16 PM EST
Moon 10:36 AM EST (2/5) No Moon Set
Length of Visible Light 11h 11m
Length of Day
10h 13m
Waxing Crescent, 39% of the Moon is Illuminated
Feb 5
Waxing Crescent
Feb 6
First Quarter
Feb 14
Full
Feb 22
Last Quarter
Mar 1
New

Hourly Weather History & Observations

Time (EST) Temp. Windchill Dew Point Humidity Pressure Visibility Wind Dir Wind Speed Gust Speed Precip Events Conditions
12:01 AM 24.8 °F 15.3 °F 21.2 °F 86% 30.02 in 1.2 mi East 9.2 mph - 0.00 in Snow Light Snow
12:30 AM 24.8 °F 16.1 °F 21.2 °F 86% 30.00 in 1.0 mi ENE 8.1 mph - 0.02 in Snow Light Snow
12:53 AM 24.1 °F 13.1 °F 21.0 °F 88% 30.05 in 1.0 mi ENE 11.5 mph - 0.03 in Snow Light Snow
1:20 AM 24.8 °F 15.3 °F 21.2 °F 86% 29.98 in 0.8 mi ENE 9.2 mph - 0.02 in Snow Light Snow
1:53 AM 24.1 °F 16.0 °F 21.0 °F 88% 30.00 in 1.0 mi East 6.9 mph - 0.05 in Snow Light Snow
2:11 AM 24.8 °F 14.0 °F 19.4 °F 80% 29.92 in 1.5 mi East 11.5 mph 17.3 mph 0.01 in Snow Light Snow
2:24 AM 24.8 °F 14.0 °F 19.4 °F 80% 29.91 in 2.0 mi East 11.5 mph 19.6 mph 0.01 in Snow Light Snow
2:33 AM 24.8 °F 16.1 °F 19.4 °F 80% 29.91 in 1.5 mi East 8.1 mph - 0.01 in Snow Light Snow
2:53 AM 24.1 °F 17.0 °F 21.0 °F 88% 29.99 in 1.5 mi East 5.8 mph - 0.02 in Snow Light Snow
3:34 AM 24.8 °F 15.3 °F 19.4 °F 80% 29.87 in 1.0 mi East 9.2 mph - 0.03 in Snow Light Snow
3:53 AM 24.1 °F 16.0 °F 19.9 °F 84% 29.94 in 1.5 mi East 6.9 mph - 0.04 in Snow Light Snow
4:11 AM 24.8 °F 16.9 °F 19.4 °F 80% 29.87 in 1.5 mi East 6.9 mph - 0.00 in Snow Light Snow
4:29 AM 24.8 °F 14.6 °F 19.4 °F 80% 29.84 in 0.8 mi East 10.4 mph - 0.02 in Snow Light Snow
4:44 AM 24.8 °F 14.6 °F 19.4 °F 80% 29.82 in 1.5 mi ENE 10.4 mph - 0.02 in Snow Light Snow
4:53 AM 24.1 °F 13.7 °F 19.9 °F 84% 29.89 in 3.0 mi ENE 10.4 mph - 0.03 in Snow Light Snow
5:33 AM 24.8 °F 14.6 °F 19.4 °F 80% 29.76 in 2.5 mi ENE 10.4 mph 19.6 mph 0.00 in Snow Light Snow
5:42 AM 24.8 °F 13.4 °F 19.4 °F 80% 29.76 in 3.0 mi East 12.7 mph - 0.00 in Snow Light Snow
5:53 AM 24.1 °F 13.1 °F 19.9 °F 84% 29.81 in 4.0 mi ENE 11.5 mph - 0.00 in Snow Light Snow
6:53 AM 24.1 °F 12.5 °F 19.9 °F 84% 29.74 in 4.0 mi ENE 12.7 mph - 0.01 in Snow Light Snow
7:04 AM 24.8 °F 14.6 °F 19.4 °F 80% 29.68 in 2.5 mi ENE 10.4 mph - 0.00 in Snow Light Snow
7:13 AM 24.8 °F 14.6 °F 19.4 °F 80% 29.67 in 3.0 mi East 10.4 mph - 0.01 in Snow Light Snow
7:53 AM 24.1 °F 10.6 °F 19.9 °F 84% 29.67 in 9.0 mi NE 17.3 mph 21.9 mph 0.02 in   Overcast
8:20 AM 24.8 °F 14.0 °F 21.2 °F 86% 29.61 in 2.5 mi NE 11.5 mph - 0.02 in Snow Light Snow
8:28 AM 24.8 °F 13.4 °F 21.2 °F 86% 29.58 in 4.0 mi ENE 12.7 mph - 0.02 in   Overcast
8:39 AM 24.8 °F 15.3 °F 21.2 °F 86% 29.60 in 2.5 mi NE 9.2 mph - 0.03 in Rain Light Freezing Rain
8:47 AM 24.8 °F 19.1 °F 21.2 °F 86% 29.64 in 1.8 mi Variable 4.6 mph - 0.06 in Rain Light Freezing Rain
8:53 AM 25.0 °F 16.3 °F 21.9 °F 88% 29.68 in 1.0 mi NE 8.1 mph - 0.09 in Snow Light Snow
9:00 AM 24.8 °F 16.9 °F 21.2 °F 86% 29.62 in 0.5 mi NNE 6.9 mph - 0.02 in Fog , Snow Snow
9:05 AM 24.8 °F 16.1 °F 21.2 °F 86% 29.62 in 0.2 mi NE 8.1 mph - 0.03 in Fog , Snow Heavy Snow
9:53 AM 24.1 °F 17.0 °F 21.9 °F 91% 29.68 in 0.2 mi North 5.8 mph - 0.13 in Fog , Snow Snow
10:04 AM 24.8 °F 16.1 °F 21.2 °F 86% 29.62 in 0.5 mi NNE 8.1 mph - 0.00 in Fog , Snow Light Snow
10:20 AM 24.8 °F 14.6 °F 21.2 °F 86% 29.63 in 0.8 mi North 10.4 mph - 0.00 in Snow Light Snow
10:31 AM 24.8 °F 15.3 °F 21.2 °F 86% 29.62 in 1.0 mi NNE 9.2 mph - 0.00 in Snow Light Snow
10:53 AM 25.0 °F 15.5 °F 21.0 °F 85% 29.68 in 0.8 mi NNE 9.2 mph - 0.00 in Snow Light Snow
11:37 AM 24.8 °F 16.1 °F 21.2 °F 86% 29.63 in 1.0 mi NNE 8.1 mph - 0.00 in Snow Light Snow
11:44 AM 24.8 °F 16.9 °F 21.2 °F 86% 29.63 in 1.2 mi North 6.9 mph - 0.00 in Snow Light Snow
11:51 AM 24.8 °F 16.1 °F 21.2 °F 86% 29.63 in 2.0 mi North 8.1 mph - 0.00 in Snow Light Snow
11:53 AM 24.1 °F 15.2 °F 21.0 °F 88% 29.69 in 2.0 mi North 8.1 mph - 0.00 in Snow Light Snow
12:02 PM 24.8 °F 15.3 °F 19.4 °F 80% 29.64 in 6.0 mi North 9.2 mph - 0.00 in   Overcast
12:29 PM 24.8 °F 15.3 °F 17.6 °F 74% 29.65 in 10.0 mi North 9.2 mph - 0.00 in   Overcast
12:53 PM 23.0 °F 14.7 °F 17.1 °F 78% 29.72 in 10.0 mi North 6.9 mph - 0.00 in   Overcast
1:33 PM 23.0 °F 13.9 °F 17.6 °F 80% 29.69 in 2.5 mi NNW 8.1 mph - 0.00 in Snow Light Snow
1:53 PM 23.0 °F 15.8 °F 17.1 °F 78% 29.75 in 3.0 mi NNW 5.8 mph - 0.00 in Snow Light Snow
2:20 PM 23.0 °F 13.1 °F 17.6 °F 80% 29.73 in 2.0 mi NNW 9.2 mph 16.1 mph 0.00 in Snow Light Snow
2:28 PM 23.0 °F 11.7 °F 17.6 °F 80% 29.74 in 1.8 mi NNW 11.5 mph 17.3 mph 0.00 in Snow Light Snow
2:53 PM 23.0 °F 11.7 °F 18.0 °F 81% 29.83 in 1.2 mi North 11.5 mph 20.7 mph 0.00 in Snow Light Snow
3:08 PM 23.0 °F 11.7 °F 17.6 °F 80% 29.79 in 0.8 mi NNW 11.5 mph 21.9 mph 0.00 in Snow Light Snow
3:26 PM 21.2 °F 9.5 °F 17.6 °F 86% 29.82 in 1.0 mi NNW 11.5 mph 23.0 mph 0.00 in Snow Light Snow
3:53 PM 21.0 °F 9.9 °F 16.0 °F 81% 29.91 in 1.0 mi NNW 10.4 mph 27.6 mph 0.00 in Snow Light Snow
4:12 PM 19.4 °F 6.0 °F 15.8 °F 86% 29.88 in 2.0 mi NNW 13.8 mph 20.7 mph 0.00 in Snow Light Snow
4:53 PM 19.9 °F 9.3 °F 14.0 °F 78% 29.99 in 2.0 mi NNW 9.2 mph 21.9 mph 0.00 in Snow Light Snow
5:17 PM 19.4 °F 7.2 °F 14.0 °F 80% 29.96 in 3.0 mi NNW 11.5 mph 17.3 mph 0.00 in Snow Light Snow
5:53 PM 19.0 °F 7.5 °F 14.0 °F 81% 30.05 in 4.0 mi North 10.4 mph 17.3 mph 0.00 in Snow Light Snow
6:35 PM 19.4 °F 10.4 °F 15.8 °F 86% 30.03 in 7.0 mi NW 6.9 mph - 0.00 in Snow Light Snow
6:53 PM 19.9 °F 11.1 °F 14.0 °F 78% 30.10 in 10.0 mi NNW 6.9 mph - 0.00 in   Overcast
7:53 PM 19.0 °F 9.0 °F 15.1 °F 85% 30.15 in 5.0 mi NW 8.1 mph - 0.00 in Snow Light Snow
8:25 PM 19.4 °F 11.5 °F 15.8 °F 86% 30.10 in 10.0 mi NNW 5.8 mph - 0.00 in   Overcast
8:53 PM 19.0 °F 11.1 °F 14.0 °F 81% 30.17 in 10.0 mi NNW 5.8 mph - 0.00 in   Overcast
9:19 PM 17.6 °F 5.0 °F 14.0 °F 86% 30.14 in 5.0 mi NW 11.5 mph 17.3 mph 0.00 in Snow Light Snow
9:53 PM 18.0 °F 6.1 °F 14.0 °F 84% 30.22 in 4.0 mi NW 10.4 mph - 0.00 in Snow Light Snow
10:53 PM 16.0 °F 3.6 °F 12.0 °F 84% 30.25 in 5.0 mi NW 10.4 mph - 0.00 in Snow Light Snow
11:32 PM 15.8 °F 5.1 °F 10.4 °F 79% 30.18 in 4.0 mi NW 8.1 mph - 0.00 in Snow Light Snow
11:53 PM 15.1 °F 6.4 °F 10.9 °F 84% 30.26 in 4.0 mi NW 5.8 mph - 0.00 in Snow Light Snow